Time;durP1;ratioP1;P1;durP2;ratioP2;P2;SDS_P1;SDS_P2;PMS_P1;PMS_P2;Temp;Humidity;BMP_temperature;BMP_pressure;BME280_temperature;BME280_humidity;BME280_pressure;Samples;Min_cycle;Max_cycle;Signal;HPM_P1;HPM_P2
2023/04/27 00:01:59;;;;;;;6.22;2.78;;;;;;;11.91;87.20;100377.63;6219979;23;20031;-84
2023/04/27 00:04:25;;;;;;;5.57;2.72;;;;;;;11.60;90.27;100378.59;6218478;23;20013;-82
2023/04/27 00:06:51;;;;;;;3.67;2.20;;;;;;;11.62;88.83;100381.88;6219524;23;20086;-82
2023/04/27 00:09:16;;;;;;;3.78;2.30;;;;;;;11.58;88.66;100376.09;6219035;23;20321;-82
2023/04/27 00:11:45;;;;;;;3.90;2.40;;;;;;;11.61;90.00;100375.75;6218614;23;20416;-82
2023/04/27 00:14:10;;;;;;;4.20;2.42;;;;;;;11.50;90.55;100370.81;6218925;23;20389;-82
2023/04/27 00:16:36;;;;;;;5.45;2.25;;;;;;;11.72;89.37;100372.75;6220015;23;20012;-83
2023/04/27 00:19:01;;;;;;;3.58;2.25;;;;;;;11.69;88.85;100378.38;6219353;23;20108;-82
2023/04/27 00:21:28;;;;;;;5.07;2.30;;;;;;;11.60;88.37;100376.72;6218494;23;20009;-83
2023/04/27 00:23:54;;;;;;;3.63;1.90;;;;;;;11.80;86.14;100385.97;6218268;23;20007;-82
2023/04/27 00:26:21;;;;;;;4.70;2.00;;;;;;;11.90;85.70;100375.13;6218291;23;20099;-83
2023/04/27 00:28:49;;;;;;;7.05;2.63;;;;;;;11.97;84.76;100391.19;6217119;23;20332;-81
2023/04/27 00:31:14;;;;;;;4.10;2.17;;;;;;;11.99;82.64;100389.22;6233191;23;20032;-81
2023/04/27 00:33:40;;;;;;;5.90;2.50;;;;;;;12.06;82.93;100395.50;6232040;23;20012;-81
2023/04/27 00:36:06;;;;;;;3.58;2.15;;;;;;;12.06;82.02;100395.50;6223413;23;20024;-81
2023/04/27 00:38:31;;;;;;;4.07;1.83;;;;;;;11.56;88.19;100394.03;6216172;23;20004;-81
2023/04/27 00:41:05;;;;;;;5.22;2.03;;;;;;;11.51;88.13;100396.34;6217661;23;20015;-81
2023/04/27 00:43:31;;;;;;;9.35;2.85;;;;;;;11.69;86.26;100394.31;6219372;23;20012;-81
2023/04/27 00:46:01;;;;;;;6.43;2.60;;;;;;;11.41;88.93;100395.72;6217978;23;20020;-81
2023/04/27 00:48:32;;;;;;;5.40;2.20;;;;;;;11.14;91.86;100401.41;6243637;23;20012;-81
2023/04/27 00:50:58;;;;;;;5.22;2.55;;;;;;;10.99;92.26;100400.47;6219402;23;20019;-81
2023/04/27 00:53:24;;;;;;;4.03;2.10;;;;;;;10.84;93.24;100398.47;6219983;23;20341;-82
2023/04/27 00:55:49;;;;;;;5.75;2.10;;;;;;;10.77;93.71;100399.31;6243634;23;20100;-83
2023/04/27 00:58:15;;;;;;;6.97;2.28;;;;;;;10.82;92.61;100400.47;6218793;23;20455;-82
2023/04/27 01:00:40;;;;;;;5.93;2.13;;;;;;;10.81;93.49;100398.81;6218311;23;20016;-80
2023/04/27 01:03:07;;;;;;;5.43;3.28;;;;;;;11.01;92.89;100399.28;6192964;23;20078;-81
2023/04/27 01:05:34;;;;;;;9.23;2.75;;;;;;;11.12;91.55;100404.25;6219306;23;20083;-81
2023/04/27 01:08:00;;;;;;;5.30;2.55;;;;;;;10.81;95.68;100405.94;6219186;23;20436;-81
2023/04/27 01:10:26;;;;;;;5.10;2.85;;;;;;;10.73;96.95;100403.28;6217724;23;20135;-81
2023/04/27 01:12:51;;;;;;;4.00;2.67;;;;;;;10.93;95.90;100395.81;6219203;23;20121;-82
2023/04/27 01:15:17;;;;;;;7.22;3.35;;;;;;;10.70;99.98;100401.81;6219572;23;20340;-82
2023/04/27 01:17:43;;;;;;;6.10;2.72;;;;;;;10.73;100.00;100406.78;6219271;23;20004;-81
2023/04/27 01:20:09;;;;;;;5.13;3.40;;;;;;;10.77;100.00;100402.78;6218601;23;20091;-83
2023/04/27 01:22:35;;;;;;;5.72;3.70;;;;;;;10.80;100.00;100406.94;6217458;23;20047;-81
2023/04/27 01:25:00;;;;;;;5.28;3.28;;;;;;;10.73;100.00;100408.59;6242716;23;20448;-83
2023/04/27 01:27:26;;;;;;;6.25;3.55;;;;;;;10.73;100.00;100406.78;6217646;23;20020;-82
2023/04/27 01:29:51;;;;;;;5.57;3.38;;;;;;;10.95;100.00;100418.53;6219124;23;20016;-82
2023/04/27 01:32:16;;;;;;;5.95;3.40;;;;;;;10.92;100.00;100421.50;6217938;23;20024;-81
2023/04/27 01:34:42;;;;;;;4.82;3.40;;;;;;;10.80;100.00;100413.03;6219388;23;20016;-81
2023/04/27 01:37:07;;;;;;;16.88;4.20;;;;;;;10.63;100.00;100414.06;6241234;23;20510;-83
2023/04/27 01:39:33;;;;;;;10.00;3.90;;;;;;;10.51;100.00;100418.00;6218645;23;20436;-82
2023/04/27 01:41:59;;;;;;;8.23;3.92;;;;;;;10.70;100.00;100411.59;6241252;23;20103;-83
2023/04/27 01:44:25;;;;;;;5.05;2.97;;;;;;;10.73;100.00;100414.72;6218443;23;20013;-83
2023/04/27 01:46:50;;;;;;;8.20;3.17;;;;;;;10.61;100.00;100418.69;6217569;23;20024;-81
2023/04/27 01:49:16;;;;;;;3.90;2.35;;;;;;;10.47;100.00;100426.47;6217142;23;20008;-82
2023/04/27 01:51:41;;;;;;;5.47;2.10;;;;;;;10.22;100.00;100420.28;6218808;23;20075;-81
2023/04/27 01:54:07;;;;;;;9.02;2.40;;;;;;;10.06;100.00;100420.22;6215378;23;20091;-82
2023/04/27 01:56:35;;;;;;;5.22;2.03;;;;;;;10.17;100.00;100419.97;6215905;23;20012;-81
2023/04/27 01:59:00;;;;;;;3.97;1.95;;;;;;;9.97;100.00;100424.66;6217364;23;20044;-82
2023/04/27 02:01:26;;;;;;;7.75;2.47;;;;;;;10.14;100.00;100423.72;6214917;23;20012;-81
2023/04/27 02:03:52;;;;;;;8.02;2.28;;;;;;;10.00;100.00;100428.81;6218353;23;20053;-82
2023/04/27 02:06:19;;;;;;;4.25;2.35;;;;;;;10.11;100.00;100425.88;6217864;23;20016;-83
2023/04/27 02:08:45;;;;;;;4.30;2.40;;;;;;;10.25;100.00;100428.72;6216927;23;20013;-82
2023/04/27 02:11:11;;;;;;;6.47;2.35;;;;;;;10.38;100.00;100428.25;6242627;23;20013;-81
2023/04/27 02:13:37;;;;;;;3.95;2.20;;;;;;;10.42;100.00;100424.31;6217452;23;20012;-82
2023/04/27 02:16:03;;;;;;;3.78;2.20;;;;;;;10.60;100.00;100437.41;6216050;23;20009;-83
2023/04/27 02:18:31;;;;;;;3.50;2.28;;;;;;;10.33;100.00;100435.88;6218302;23;20039;-81
2023/04/27 02:20:57;;;;;;;9.77;2.55;;;;;;;10.09;100.00;100444.56;6220193;23;20083;-81
2023/04/27 02:23:22;;;;;;;6.25;2.58;;;;;;;10.09;100.00;100446.38;6218618;23;20340;-83
2023/04/27 02:25:48;;;;;;;3.95;2.38;;;;;;;9.90;100.00;100444.00;6216665;23;20020;-81
2023/04/27 02:28:14;;;;;;;4.65;2.40;;;;;;;10.07;100.00;100456.31;6216771;23;20031;-82
2023/04/27 02:30:39;;;;;;;8.35;2.40;;;;;;;9.92;100.00;100461.38;6242800;23;20005;-81
2023/04/27 02:33:05;;;;;;;7.93;2.42;;;;;;;9.88;100.00;100456.56;6218148;23;20013;-81
2023/04/27 02:35:32;;;;;;;5.00;2.38;;;;;;;9.79;100.00;100463.63;6216557;23;20415;-81
2023/04/27 02:37:58;;;;;;;8.98;2.63;;;;;;;9.81;100.00;100461.63;6217802;23;20013;-81
2023/04/27 02:40:24;;;;;;;7.20;2.55;;;;;;;9.67;100.00;100463.09;6218596;23;20008;-81
2023/04/27 02:42:50;;;;;;;5.10;2.92;;;;;;;9.70;100.00;100464.56;6241466;23;20040;-81
2023/04/27 02:45:16;;;;;;;5.90;2.63;;;;;;;9.84;100.00;100454.22;6216833;23;20083;-82
2023/04/27 02:47:43;;;;;;;8.02;3.10;;;;;;;9.66;100.00;100458.78;6218897;23;20458;-83
2023/04/27 02:50:09;;;;;;;6.18;2.50;;;;;;;9.78;100.00;100454.84;6217968;23;20008;-80
2023/04/27 02:52:35;;;;;;;6.53;2.63;;;;;;;9.90;100.00;100459.88;6241357;23;20440;-81
2023/04/27 02:55:00;;;;;;;5.20;3.25;;;;;;;9.79;100.00;100468.91;6216143;23;20128;-82
2023/04/27 02:57:27;;;;;;;6.78;3.10;;;;;;;9.70;100.00;100469.88;6243141;23;20379;-82
2023/04/27 02:59:52;;;;;;;5.97;3.25;;;;;;;9.56;100.00;100473.94;6226655;23;20086;-82
2023/04/27 03:02:18;;;;;;;5.85;2.95;;;;;;;9.67;100.00;100476.31;6235612;23;20017;-82
2023/04/27 03:05:09;;;;;;;8.07;3.78;;;;;;;9.38;100.00;100470.50;6236018;23;20430;-82
2023/04/27 03:07:44;;;;;;;7.20;2.85;;;;;;;9.44;100.00;100480.47;6139364;23;20021;-81
2023/04/27 03:10:18;;;;;;;5.63;3.00;;;;;;;9.19;100.00;100476.00;6130051;23;20013;-81
2023/04/27 03:12:44;;;;;;;9.32;2.85;;;;;;;9.26;100.00;100482.31;6102858;23;20030;-80
2023/04/27 03:15:09;;;;;;;6.28;2.70;;;;;;;9.09;100.00;100489.31;6125267;23;20042;-81
2023/04/27 03:17:35;;;;;;;4.05;2.28;;;;;;;9.14;100.00;100484.41;6101803;23;20006;-81
2023/04/27 03:20:01;;;;;;;6.00;2.85;;;;;;;9.06;100.00;100488.78;6125579;23;20022;-82
2023/04/27 03:22:30;;;;;;;5.65;2.67;;;;;;;8.88;100.00;100494.09;6125622;23;20021;-80
2023/04/27 03:24:55;;;;;;;6.80;2.30;;;;;;;9.01;100.00;100501.63;6125240;23;20018;-81
2023/04/27 03:27:21;;;;;;;4.43;2.88;;;;;;;8.93;100.00;100493.63;6125137;23;20549;-82
2023/04/27 03:29:52;;;;;;;5.90;2.33;;;;;;;8.96;100.00;100503.88;6125867;23;20018;-79
2023/04/27 03:32:18;;;;;;;4.95;2.40;;;;;;;8.81;100.00;100504.44;6125688;23;20037;-81
2023/04/27 03:34:43;;;;;;;4.35;2.47;;;;;;;8.53;100.00;100499.34;6125346;23;20068;-80
2023/04/27 03:37:09;;;;;;;6.97;2.60;;;;;;;8.33;100.00;100501.28;6125195;23;20028;-80
2023/04/27 03:39:35;;;;;;;8.77;3.08;;;;;;;8.41;100.00;100500.56;6134148;23;20029;-80
2023/04/27 03:42:02;;;;;;;4.03;2.47;;;;;;;8.28;100.00;100495.63;6132237;23;20018;-81
2023/04/27 03:44:29;;;;;;;7.38;3.10;;;;;;;8.13;100.00;100489.13;6183571;23;20012;-79
2023/04/27 03:46:55;;;;;;;10.65;3.22;;;;;;;8.27;100.00;100494.75;6245218;23;20013;-82
2023/04/27 03:49:20;;;;;;;6.10;2.72;;;;;;;8.09;100.00;100501.78;6240864;23;20019;-81
2023/04/27 03:51:46;;;;;;;5.85;2.95;;;;;;;8.04;100.00;100505.88;6215309;23;20448;-79
2023/04/27 03:54:13;;;;;;;8.85;2.42;;;;;;;8.02;100.00;100489.34;6216853;23;20016;-80
2023/04/27 03:56:39;;;;;;;5.70;2.85;;;;;;;7.96;100.00;100503.09;6217048;23;20008;-81
2023/04/27 03:59:05;;;;;;;10.40;3.20;;;;;;;7.96;100.00;100492.56;6216190;23;20015;-81
2023/04/27 04:01:33;;;;;;;7.35;2.60;;;;;;;7.89;100.00;100486.22;6241081;23;20013;-81
2023/04/27 04:03:58;;;;;;;7.57;2.67;;;;;;;7.93;100.00;100490.22;6240961;23;20355;-80
2023/04/27 04:06:24;;;;;;;7.03;2.83;;;;;;;7.99;100.00;100482.53;6217532;23;20435;-82
2023/04/27 04:08:49;;;;;;;11.65;3.10;;;;;;;7.87;100.00;100489.00;6217641;23;20055;-80
2023/04/27 04:11:15;;;;;;;13.75;2.95;;;;;;;7.82;100.00;100493.06;6216199;23;20039;-82
2023/04/27 04:13:42;;;;;;;7.72;2.55;;;;;;;7.98;100.00;100503.81;6215772;23;20016;-80
2023/04/27 04:16:09;;;;;;;4.85;2.30;;;;;;;8.19;100.00;100496.47;6217337;23;20035;-81
2023/04/27 04:18:35;;;;;;;5.40;2.78;;;;;;;8.23;100.00;100503.13;6215301;23;20458;-82
2023/04/27 04:21:01;;;;;;;9.77;2.75;;;;;;;8.19;100.00;100513.13;6216248;23;20005;-82
2023/04/27 04:23:26;;;;;;;7.28;2.80;;;;;;;8.55;100.00;100514.06;6218539;23;20015;-81
2023/04/27 04:25:56;;;;;;;21.83;10.60;;;;;;;8.72;100.00;100521.19;6215921;23;20013;-81
2023/04/27 04:28:23;;;;;;;11.95;4.95;;;;;;;8.75;100.00;100526.16;6240540;23;20008;-82
2023/04/27 04:30:49;;;;;;;7.07;3.65;;;;;;;8.24;100.00;100520.63;6240744;23;20098;-82
2023/04/27 04:33:16;;;;;;;7.68;2.97;;;;;;;8.13;100.00;100532.22;6243265;23;20007;-81
2023/04/27 04:35:42;;;;;;;9.13;2.88;;;;;;;7.99;100.00;100542.41;6244034;23;20051;-81
2023/04/27 04:38:09;;;;;;;4.00;2.85;;;;;;;7.87;100.00;100546.22;6241135;23;20013;-83
2023/04/27 04:40:37;;;;;;;7.50;2.90;;;;;;;7.86;100.00;100548.00;6217219;23;20077;-81
2023/04/27 04:43:03;;;;;;;6.93;2.70;;;;;;;7.76;100.00;100548.03;6221356;23;20001;-83
2023/04/27 04:45:29;;;;;;;5.30;2.75;;;;;;;7.83;100.00;100553.56;6219133;23;20012;-81
2023/04/27 04:47:56;;;;;;;7.60;3.03;;;;;;;8.01;100.00;100553.66;6218988;23;20016;-82
2023/04/27 04:50:25;;;;;;;7.75;3.40;;;;;;;8.06;100.00;100554.03;6222562;23;20032;-81
2023/04/27 04:52:50;;;;;;;6.80;2.83;;;;;;;8.11;100.00;100557.09;6244410;23;20007;-81
2023/04/27 04:55:16;;;;;;;6.63;2.83;;;;;;;8.17;100.00;100552.06;6220112;23;20013;-81
2023/04/27 04:57:42;;;;;;;6.90;3.05;;;;;;;8.29;100.00;100555.34;6224023;23;20036;-82
2023/04/27 05:00:12;;;;;;;5.25;3.08;;;;;;;8.40;100.00;100557.81;6227740;23;20008;-81
2023/04/27 05:02:38;;;;;;;7.03;3.05;;;;;;;8.44;100.00;100547.78;6255336;23;20016;-83
2023/04/27 05:05:04;;;;;;;7.43;3.58;;;;;;;8.50;100.00;100552.47;6254171;23;20015;-84
2023/04/27 05:07:30;;;;;;;5.93;3.53;;;;;;;8.54;100.00;100554.69;6255556;23;20076;-82
2023/04/27 05:09:56;;;;;;;4.70;3.45;;;;;;;8.70;100.00;100565.44;6252142;23;20058;-84
2023/04/27 05:12:21;;;;;;;12.48;3.35;;;;;;;8.56;100.00;100562.44;6258443;23;20042;-84
2023/04/27 05:14:47;;;;;;;10.15;3.50;;;;;;;8.62;100.00;100562.69;6260155;23;20004;-84
2023/04/27 05:17:13;;;;;;;9.73;3.75;;;;;;;8.91;100.00;100577.53;6258877;23;20067;-82
2023/04/27 05:19:41;;;;;;;6.55;3.10;;;;;;;9.26;100.00;100577.53;6260063;23;20008;-85
2023/04/27 05:22:06;;;;;;;11.50;3.40;;;;;;;9.41;100.00;100581.31;6259222;23;20004;-83
2023/04/27 05:24:32;;;;;;;11.00;3.45;;;;;;;9.57;100.00;100581.44;6254839;23;20095;-82
2023/04/27 05:26:58;;;;;;;8.30;3.22;;;;;;;9.81;100.00;100572.81;6252404;23;20023;-83
2023/04/27 05:29:23;;;;;;;10.07;3.60;;;;;;;10.19;100.00;100576.88;6252648;23;20062;-83
2023/04/27 05:31:52;;;;;;;9.20;3.60;;;;;;;10.56;100.00;100571.22;6253357;23;20008;-85
2023/04/27 05:34:18;;;;;;;11.27;3.28;;;;;;;10.70;100.00;100576.75;6232681;23;20035;-81
2023/04/27 05:36:46;;;;;;;10.57;3.75;;;;;;;10.96;99.76;100578.44;6257841;23;20112;-83
2023/04/27 05:39:13;;;;;;;15.18;6.60;;;;;;;11.00;93.99;100585.09;6256694;23;20031;-81
2023/04/27 05:41:39;;;;;;;12.10;3.83;;;;;;;11.27;93.62;100593.56;6223991;23;20016;-81
2023/04/27 05:44:05;;;;;;;8.48;4.30;;;;;;;11.62;87.93;100592.44;6252088;23;20064;-82
2023/04/27 05:46:31;;;;;;;8.65;3.63;;;;;;;11.91;83.80;100594.56;6253003;23;20012;-84
2023/04/27 05:48:57;;;;;;;7.55;3.15;;;;;;;12.38;78.44;100602.59;6224583;23;20009;-86
2023/04/27 05:51:22;;;;;;;8.02;3.08;;;;;;;13.48;74.00;100591.66;6247851;23;20054;-83
2023/04/27 05:53:54;;;;;;;7.90;3.35;;;;;;;14.22;68.03;100611.28;6252190;23;20019;-85
2023/04/27 05:56:20;;;;;;;8.80;3.47;;;;;;;13.82;67.87;100615.97;6250003;23;20039;-86
2023/04/27 05:58:46;;;;;;;9.50;3.30;;;;;;;15.95;60.69;100625.31;6241404;23;20025;-83
2023/04/27 06:01:11;;;;;;;16.95;4.68;;;;;;;16.88;55.17;100630.22;6219704;23;20067;-82
2023/04/27 06:03:37;;;;;;;23.23;5.28;;;;;;;16.10;55.76;100630.59;6217833;23;20012;-82
2023/04/27 06:06:03;;;;;;;6.57;2.78;;;;;;;17.70;52.19;100636.19;6217869;23;20444;-82
2023/04/27 06:08:30;;;;;;;8.18;3.15;;;;;;;19.06;45.88;100637.97;6217658;23;20035;-83
2023/04/27 06:10:56;;;;;;;11.93;3.00;;;;;;;18.00;47.40;100639.28;6217670;23;20013;-83
2023/04/27 06:13:22;;;;;;;5.78;2.22;;;;;;;19.24;43.70;100648.00;6219329;23;20017;-83
2023/04/27 06:15:47;;;;;;;6.82;2.40;;;;;;;17.89;46.02;100639.91;6217775;23;20005;-81
2023/04/27 06:18:13;;;;;;;11.27;2.53;;;;;;;17.84;46.86;100650.41;6219570;23;20008;-82
2023/04/27 06:20:39;;;;;;;6.38;2.50;;;;;;;18.56;44.49;100653.03;6221551;23;20019;-83
2023/04/27 06:23:04;;;;;;;4.30;1.73;;;;;;;18.53;42.99;100648.09;6231636;23;20013;-81
2023/04/27 06:25:30;;;;;;;5.93;2.30;;;;;;;16.41;47.83;100649.69;6232984;23;20007;-82
2023/04/27 06:27:57;;;;;;;7.57;1.67;;;;;;;16.02;48.71;100648.44;6231062;23;20016;-80
2023/04/27 06:30:23;;;;;;;12.88;2.17;;;;;;;15.77;51.72;100657.06;6228950;23;20382;-83
2023/04/27 06:32:50;;;;;;;5.80;1.90;;;;;;;16.18;50.68;100652.66;6223120;23;20013;-85
2023/04/27 06:35:16;;;;;;;8.20;1.70;;;;;;;15.49;52.27;100659.66;6194920;23;20433;-83
2023/04/27 06:37:42;;;;;;;5.53;2.53;;;;;;;15.67;51.72;100656.56;6219946;23;20001;-84
2023/04/27 06:40:08;;;;;;;4.97;1.60;;;;;;;15.61;53.96;100646.66;6218894;23;20345;-82
2023/04/27 06:42:34;;;;;;;4.93;2.03;;;;;;;16.14;53.03;100658.59;6219745;23;20012;-83
2023/04/27 06:45:00;;;;;;;6.15;2.03;;;;;;;17.10;49.25;100663.88;6219032;23;20032;-84
2023/04/27 06:47:25;;;;;;;8.25;1.92;;;;;;;18.08;47.44;100666.72;6220862;23;20100;-84
2023/04/27 06:49:51;;;;;;;11.65;2.50;;;;;;;17.01;50.18;100662.38;6195467;23;20087;-84
2023/04/27 06:52:16;;;;;;;8.77;2.38;;;;;;;16.68;51.62;100667.59;6220745;23;20009;-82
2023/04/27 06:54:42;;;;;;;13.10;2.60;;;;;;;16.98;50.45;100662.78;6220549;23;20012;-81
2023/04/27 06:57:07;;;;;;;8.43;2.33;;;;;;;17.43;49.05;100666.66;6220297;23;20012;-83
2023/04/27 06:59:33;;;;;;;15.82;2.30;;;;;;;16.94;52.54;100667.72;6235861;23;20004;-82
2023/04/27 07:01:58;;;;;;;7.28;2.13;;;;;;;16.69;53.93;100671.94;6221613;23;20047;-81
2023/04/27 07:04:24;;;;;;;5.28;2.30;;;;;;;17.66;49.61;100674.34;6230514;23;20008;-83
2023/04/27 07:06:50;;;;;;;5.75;1.73;;;;;;;18.62;47.32;100673.69;6233356;23;20017;-83
2023/04/27 07:09:15;;;;;;;10.30;2.38;;;;;;;18.89;44.59;100688.66;6242802;23;20000;-82
2023/04/27 07:11:41;;;;;;;2.60;1.73;;;;;;;20.26;42.38;100693.41;6242807;23;20001;-84
2023/04/27 07:14:06;;;;;;;5.50;2.13;;;;;;;18.38;46.07;100679.69;6241416;23;20003;-82
2023/04/27 07:16:32;;;;;;;13.13;2.10;;;;;;;18.30;46.42;100682.56;6242273;23;20004;-84
2023/04/27 07:18:58;;;;;;;8.88;2.13;;;;;;;18.96;43.55;100685.94;6242355;23;20015;-82
2023/04/27 07:21:23;;;;;;;7.15;2.03;;;;;;;20.00;41.69;100684.53;6242436;23;20000;-82
2023/04/27 07:23:48;;;;;;;4.10;2.10;;;;;;;20.37;40.41;100695.44;6243259;23;20020;-80
2023/04/27 07:26:17;;;;;;;8.80;2.13;;;;;;;19.78;41.81;100680.59;6239516;23;20377;-80
2023/04/27 07:28:43;;;;;;;5.88;1.80;;;;;;;18.68;44.91;100680.91;6242098;23;20033;-81
2023/04/27 07:31:08;;;;;;;6.18;2.20;;;;;;;19.22;46.20;100674.28;6243504;23;20035;-82
2023/04/27 07:33:34;;;;;;;8.90;2.45;;;;;;;19.89;44.81;100671.78;6243050;23;20068;-81
2023/04/27 07:36:01;;;;;;;6.72;2.30;;;;;;;20.95;42.53;100680.50;6243133;23;20000;-83
2023/04/27 07:38:28;;;;;;;7.07;2.53;;;;;;;20.59;42.26;100684.00;6241977;23;20001;-79
2023/04/27 07:40:53;;;;;;;8.90;2.85;;;;;;;20.97;42.27;100689.19;6232528;23;20023;-81
2023/04/27 07:43:59;;;;;;;13.73;2.40;;;;;;;21.87;41.56;100675.72;6237483;23;19996;-81
2023/04/27 07:46:25;;;;;;;8.65;3.50;;;;;;;21.82;42.47;100679.09;6243749;23;20001;-83
2023/04/27 07:48:54;;;;;;;11.30;3.45;;;;;;;21.24;45.16;100681.63;6239937;23;20376;-81
2023/04/27 07:51:20;;;;;;;6.70;3.53;;;;;;;22.06;44.12;100686.22;6229998;23;20012;-83
2023/04/27 07:54:05;;;;;;;9.85;4.20;;;;;;;19.90;50.87;100683.38;6231224;23;20083;-83
2023/04/27 07:56:31;;;;;;;8.55;4.18;;;;;;;20.89;48.99;100684.09;6225116;23;20100;-80
2023/04/27 07:58:57;;;;;;;12.73;4.65;;;;;;;20.47;50.52;100679.59;6221798;23;20325;-80
2023/04/27 08:01:23;;;;;;;10.65;4.53;;;;;;;19.91;54.05;100680.50;6224091;23;20001;-81
2023/04/27 08:04:12;;;;;;;6.25;4.30;;;;;;;20.70;51.76;100679.75;6225250;23;20017;-81
2023/04/27 08:06:38;;;;;;;9.15;4.93;;;;;;;20.74;51.48;100686.34;6221546;23;20013;-81
2023/04/27 08:09:04;;;;;;;9.93;5.38;;;;;;;20.52;51.41;100693.19;6218803;23;20013;-84
2023/04/27 08:11:29;;;;;;;10.13;5.30;;;;;;;21.00;50.72;100686.03;6220252;23;20314;-81
2023/04/27 08:13:55;;;;;;;9.85;4.75;;;;;;;21.00;50.00;100688.72;6220020;23;20432;-82
2023/04/27 08:16:26;;;;;;;9.43;4.55;;;;;;;20.83;49.59;100690.38;6218869;23;20005;-80
2023/04/27 08:18:52;;;;;;;11.65;4.80;;;;;;;20.64;51.28;100688.75;6217719;23;20437;-82
2023/04/27 08:21:17;;;;;;;10.73;5.00;;;;;;;20.40;51.54;100684.22;6220104;23;20012;-84
2023/04/27 08:23:43;;;;;;;9.95;5.45;;;;;;;20.90;51.06;100691.13;6223292;23;20437;-82
2023/04/27 08:26:30;;;;;;;13.75;6.18;;;;;;;20.18;54.45;100686.47;6226544;23;20012;-80
2023/04/27 08:29:02;;;;;;;10.38;5.53;;;;;;;20.44;55.13;100696.19;6230032;23;20052;-80
2023/04/27 08:31:27;;;;;;;11.75;5.88;;;;;;;21.27;50.42;100696.50;6233177;23;20008;-80
2023/04/27 08:33:53;;;;;;;11.63;5.45;;;;;;;21.01;49.80;100703.84;6220118;23;20012;-81
2023/04/27 08:36:26;;;;;;;8.05;5.22;;;;;;;21.51;49.83;100706.34;6217662;23;20044;-85
2023/04/27 08:38:52;;;;;;;9.05;5.13;;;;;;;22.28;45.86;100709.94;6223255;23;20428;-83
2023/04/27 08:41:22;;;;;;;9.32;4.50;;;;;;;23.01;43.55;100699.44;6231407;23;20013;-85
2023/04/27 08:43:48;;;;;;;11.85;4.72;;;;;;;22.65;44.81;100689.72;6222611;23;20070;-80
2023/04/27 08:46:21;;;;;;;10.60;5.85;;;;;;;21.26;51.11;100695.69;6218682;23;19997;-82
2023/04/27 08:48:51;;;;;;;8.20;5.65;;;;;;;22.30;47.96;100691.63;6219273;23;20094;-82
2023/04/27 08:51:17;;;;;;;9.25;5.82;;;;;;;21.19;51.01;100699.50;6219472;23;20016;-82
2023/04/27 08:53:54;;;;;;;8.43;6.18;;;;;;;21.17;51.88;100696.22;6217833;23;20005;-81
2023/04/27 08:56:22;;;;;;;12.48;6.45;;;;;;;21.06;53.40;100693.22;6215329;23;20024;-81
2023/04/27 08:58:48;;;;;;;8.80;5.90;;;;;;;21.71;50.77;100693.38;6217115;23;20071;-81
2023/04/27 09:01:14;;;;;;;9.23;5.40;;;;;;;21.82;50.36;100700.69;6216560;23;20011;-81
2023/04/27 09:03:40;;;;;;;8.90;6.18;;;;;;;21.83;49.59;100702.34;6216515;23;20013;-81
2023/04/27 09:06:09;;;;;;;9.65;6.30;;;;;;;21.49;50.84;100703.03;6224960;23;20024;-88
2023/04/27 09:08:48;;;;;;;11.75;6.10;;;;;;;22.22;49.21;100705.47;6236789;23;20028;-86
2023/04/27 09:11:40;;;;;;;10.40;5.40;;;;;;;22.26;48.61;100706.66;6222808;23;20047;-83
2023/04/27 09:14:23;;;;;;;10.30;5.85;;;;;;;21.31;52.02;100714.69;6234596;23;20017;-86
2023/04/27 09:16:56;;;;;;;;;;;;;;;21.17;52.47;100696.22;6232702;23;20031;-86
2023/04/27 09:19:29;;;;;;;11.85;6.10;;;;;;;21.21;54.11;100700.13;6208225;23;19939;-85
2023/04/27 09:22:07;;;;;;;15.10;6.70;;;;;;;21.26;55.43;100692.16;6234132;23;20012;-84
2023/04/27 09:24:33;;;;;;;10.90;5.72;;;;;;;21.92;51.15;100692.06;6232507;23;20071;-84
2023/04/27 09:27:02;;;;;;;9.23;6.57;;;;;;;22.34;52.01;100688.22;6224427;23;20001;-83
2023/04/27 09:29:35;;;;;;;14.95;6.05;;;;;;;22.27;51.41;100681.31;6234890;23;20039;-82
2023/04/27 09:32:01;;;;;;;8.35;5.88;;;;;;;21.98;53.17;100678.44;6236549;23;20008;-86
2023/04/27 09:34:37;;;;;;;7.22;5.78;;;;;;;21.89;53.76;100687.09;6235825;23;20052;-85
2023/04/27 09:37:11;;;;;;;9.27;6.60;;;;;;;21.55;55.67;100689.47;6236687;23;20343;-83
2023/04/27 09:39:41;;;;;;;11.63;6.82;;;;;;;21.50;56.04;100675.03;6235760;23;20012;-84
2023/04/27 09:42:33;;;;;;;9.95;7.38;;;;;;;21.52;57.43;100673.75;6230949;23;19997;-89
2023/04/27 09:45:02;;;;;;;9.02;6.80;;;;;;;20.71;59.40;100670.63;6206152;23;20068;-83
2023/04/27 09:47:34;;;;;;;11.88;7.50;;;;;;;21.10;58.85;100675.56;6235254;23;20048;-87
2023/04/27 09:52:50;;;;;;;15.55;6.88;;;;;;;21.23;56.69;100676.44;6159743;23;20026;-86
2023/04/27 09:55:26;;;;;;;8.82;6.80;;;;;;;20.97;60.30;100670.31;6170928;23;20014;-86
2023/04/27 09:58:12;;;;;;;8.80;6.47;;;;;;;21.61;57.41;100675.06;6121405;23;20112;-85
2023/04/27 10:01:11;;;;;;;10.18;7.25;;;;;;;21.75;57.12;100672.97;6171284;23;20010;-87
2023/04/27 10:04:15;;;;;;;9.15;6.10;;;;;;;21.74;54.60;100670.53;6167102;22;20017;-86
2023/04/27 10:06:59;;;;;;;10.88;6.85;;;;;;;22.01;55.79;100661.78;6169751;23;20042;-86
2023/04/27 10:09:29;;;;;;;9.80;6.72;;;;;;;22.17;54.35;100671.88;6190018;22;20019;-88
2023/04/27 10:13:00;;;;;;;11.35;6.85;;;;;;;21.89;54.40;100669.06;6274418;22;20078;-87
2023/04/27 10:15:41;;;;;;;9.10;5.70;;;;;;;22.05;51.85;100671.06;6239786;23;20021;-85
2023/04/27 10:18:27;;;;;;;9.80;6.25;;;;;;;22.13;50.84;100659.94;6217107;23;20489;-84
2023/04/27 10:21:23;;;;;;;11.38;5.88;;;;;;;22.20;50.75;100665.22;6210704;23;20016;-86
2023/04/27 10:24:08;;;;;;;9.25;6.35;;;;;;;22.30;51.83;100659.22;6258863;22;20090;-85
2023/04/27 10:27:15;;;;;;;;;;;;;;;;;;;;;
2023/04/27 10:30:16;;;;;;;9.30;5.60;;;;;;;22.47;49.53;100655.56;6296508;22;20185;-84
2023/04/27 10:33:10;;;;;;;11.38;6.78;;;;;;;21.64;53.50;100646.81;6295215;22;20039;-84
2023/04/27 10:35:59;;;;;;;9.57;6.15;;;;;;;22.23;48.84;100647.72;6297114;22;20067;-87
2023/04/27 10:38:31;;;;;;;7.07;4.57;;;;;;;22.30;49.02;100659.22;6263296;22;20087;-86
2023/04/27 10:41:13;;;;;;;8.18;5.22;;;;;;;22.09;47.86;100653.34;6265165;22;20071;-87
2023/04/27 10:43:47;;;;;;;14.60;6.00;;;;;;;21.99;50.16;100647.72;6268094;22;20007;-86
2023/04/27 10:46:14;;;;;;;13.93;5.50;;;;;;;21.81;47.83;100653.16;6292578;22;20052;-83
2023/04/27 10:48:43;;;;;;;10.90;6.10;;;;;;;22.11;47.69;100643.13;6265427;22;20023;-81
2023/04/27 10:51:16;;;;;;;9.15;5.43;;;;;;;22.11;47.53;100643.13;6292811;22;20000;-83
2023/04/27 10:57:51;;;;;;;10.73;5.65;;;;;;;22.40;47.38;100635.97;6187352;23;20025;-85
2023/04/27 11:00:45;;;;;;;8.30;5.20;;;;;;;22.50;46.02;100638.91;6025422;23;20055;-84
2023/04/27 11:03:29;;;;;;;12.23;4.70;;;;;;;23.27;44.77;100644.78;6040213;23;20384;-88
2023/04/27 11:06:03;;;;;;;8.60;5.43;;;;;;;23.67;43.39;100644.72;6040984;23;20407;-84
2023/04/27 11:08:29;;;;;;;7.75;5.40;;;;;;;23.11;45.50;100643.69;6015554;23;20030;-85
2023/04/27 11:10:55;;;;;;;11.18;5.70;;;;;;;23.32;44.92;100635.97;6039421;23;20068;-84
2023/04/27 11:13:23;;;;;;;9.85;5.03;;;;;;;23.44;45.39;100634.03;6039139;23;20015;-83
2023/04/27 11:15:53;;;;;;;7.00;5.45;;;;;;;23.49;43.26;100634.13;6015656;23;20078;-82
2023/04/27 11:18:21;;;;;;;9.52;5.95;;;;;;;23.35;45.32;100630.88;6044677;23;20397;-82
2023/04/27 11:20:49;;;;;;;10.20;6.35;;;;;;;22.27;49.18;100630.00;6023544;23;20015;-85
2023/04/27 11:23:40;;;;;;;10.27;6.25;;;;;;;22.49;49.51;100636.44;6046167;23;20023;-83
2023/04/27 11:26:21;;;;;;;10.27;6.40;;;;;;;22.56;48.38;100629.03;6046893;23;20104;-86
2023/04/27 11:29:04;;;;;;;10.52;6.95;;;;;;;22.94;46.51;100623.88;6046185;23;20038;-84
2023/04/27 11:31:53;;;;;;;8.77;6.45;;;;;;;22.73;44.64;100621.84;6050174;23;20022;-85
2023/04/27 11:34:21;;;;;;;8.95;6.32;;;;;;;22.44;46.87;100620.09;6054512;23;20022;-86
2023/04/27 11:36:58;;;;;;;10.68;7.28;;;;;;;23.08;45.63;100629.81;6095354;23;20016;-84
2023/04/27 11:39:32;;;;;;;11.10;6.85;;;;;;;22.85;45.46;100636.13;6256118;23;20015;-83
2023/04/27 11:42:24;;;;;;;9.32;6.60;;;;;;;22.23;48.42;100631.53;6255529;23;20144;-86